createdAt,value
2023-03-29T14:01:07.475Z,44.6852
2023-03-29T14:02:08.663Z,44.9402
2023-03-29T14:03:09.833Z,46.3488
2023-03-29T14:04:11.093Z,42.7807
2023-03-29T14:05:12.318Z,41.7565
2023-03-29T14:06:13.546Z,41.4563
2023-03-29T14:07:14.812Z,39.9739
2023-03-29T14:08:19.401Z,39.6517
2023-03-29T14:09:20.931Z,39.5543
2023-03-29T14:10:22.423Z,40.1123
2023-03-29T14:11:24.481Z,39.4742
2023-03-29T14:12:25.653Z,38.9530
2023-03-29T14:13:27.036Z,38.6571
2023-03-29T14:14:28.553Z,38.8085
2023-03-29T14:15:30.049Z,38.6529
2023-03-29T14:16:31.815Z,38.3814
2023-03-29T14:17:33.133Z,38.5910
2023-03-29T14:18:34.802Z,38.7634
2023-03-29T14:19:36.128Z,38.6315
2023-03-29T14:21:58.808Z,37.7962
2023-03-29T14:23:00.047Z,37.7337
2023-03-29T14:24:01.282Z,37.6124
2023-03-29T14:25:02.477Z,38.1958
2023-03-29T14:26:03.972Z,38.5591
2023-03-29T14:27:04.989Z,37.9001
2023-03-29T14:28:06.234Z,37.8472
2023-03-29T14:29:07.445Z,37.8734
2023-03-29T14:30:07.600Z,38.2420
2023-03-29T14:32:04.573Z,37.2876
2023-03-29T14:33:05.787Z,37.2866
2023-03-29T14:34:06.958Z,37.4625
2023-03-29T14:35:10.401Z,37.6233
2023-03-29T14:36:12.064Z,37.8815
2023-03-29T14:37:13.475Z,38.0279
2023-03-29T14:38:14.927Z,38.0640
2023-03-29T14:39:17.847Z,38.7624
2023-03-29T14:40:19.120Z,38.6382
2023-03-29T14:41:21.998Z,38.9476
2023-03-29T14:42:21.575Z,38.8425
2023-03-29T14:43:22.746Z,38.0396
2023-03-29T14:44:24.076Z,37.6918
2023-03-29T14:45:25.566Z,37.5969
2023-03-29T14:46:27.197Z,37.5996
2023-03-29T14:47:28.650Z,38.3264
2023-03-29T14:48:30.137Z,38.1884
2023-03-29T14:49:31.702Z,39.0122
2023-03-29T14:50:33.196Z,39.0819
2023-03-29T14:51:34.694Z,36.9954
2023-03-29T14:52:36.239Z,36.5565
2023-03-29T14:53:37.762Z,36.7335
2023-03-29T14:54:39.242Z,36.3924
2023-03-29T14:55:40.799Z,36.6765
2023-03-29T14:56:42.308Z,36.8255
2023-03-29T14:57:43.852Z,36.1566
2023-03-29T14:58:45.316Z,35.5697
2023-03-29T14:59:46.854Z,35.4256
2023-03-29T15:00:48.399Z,35.8507
2023-03-29T15:01:50.010Z,36.4577
2023-03-29T15:02:51.536Z,36.6558
2023-03-29T15:03:54.712Z,36.6937
2023-03-29T15:04:54.461Z,36.6646
2023-03-29T15:05:56.003Z,36.7620
2023-03-29T15:06:57.510Z,36.6756
2023-03-29T15:07:59.025Z,36.7474
2023-03-29T15:09:06.161Z,36.7422
2023-03-29T15:10:04.418Z,36.8640
2023-03-29T15:11:05.694Z,36.9443
2023-03-29T15:12:06.925Z,37.0670
2023-03-29T15:13:08.181Z,36.9027
2023-03-29T15:14:09.433Z,36.9473
2023-03-29T15:15:10.629Z,37.3103
2023-03-29T15:16:12.075Z,37.0896
2023-03-29T15:17:13.122Z,37.2099
2023-03-29T15:18:14.441Z,37.5213
2023-03-29T15:19:15.725Z,37.1829
2023-03-29T15:20:17.260Z,37.9689
2023-03-29T15:21:18.794Z,37.8481
2023-03-29T15:22:20.275Z,37.4152
2023-03-29T15:23:21.854Z,37.7089
2023-03-29T15:24:23.368Z,37.4669
2023-03-29T15:25:24.877Z,37.5807
2023-03-29T15:26:26.394Z,37.3213
2023-03-29T15:27:27.928Z,37.6555
2023-03-29T15:28:29.487Z,38.2331
2023-03-29T15:29:30.936Z,37.8732
2023-03-29T15:30:33.982Z,37.5858
2023-03-29T15:31:35.245Z,37.5958
2023-03-29T15:32:36.465Z,37.4206
2023-03-29T15:33:37.922Z,37.2997
2023-03-29T15:34:38.930Z,37.6575
2023-03-29T15:35:40.160Z,37.7610
2023-03-29T15:36:41.703Z,37.5225
2023-03-29T15:37:43.136Z,37.7406
2023-03-29T15:38:45.508Z,37.5228
2023-03-29T15:39:46.180Z,37.6160
2023-03-29T15:40:47.763Z,37.4574
2023-03-29T15:41:49.287Z,37.4846
2023-03-29T15:42:50.760Z,37.9526
2023-03-29T15:43:52.268Z,37.6387
2023-03-29T15:44:53.809Z,37.4489
2023-03-29T15:45:55.330Z,37.4890
2023-03-29T15:46:56.875Z,37.7115
2023-03-29T15:47:59.735Z,37.8470
2023-03-29T15:49:01.015Z,37.8819
2023-03-29T15:50:02.198Z,37.8637
2023-03-29T15:51:06.534Z,37.3696
2023-03-29T15:52:04.677Z,37.4774
2023-03-29T15:53:15.149Z,37.6473
2023-03-29T15:54:07.584Z,37.5897
2023-03-29T15:55:08.998Z,37.5630
2023-03-29T15:56:10.562Z,38.0470
2023-03-29T15:57:12.482Z,37.9929
2023-03-29T15:58:13.665Z,37.6304
2023-03-29T15:59:18.129Z,38.1812
2023-03-29T16:00:19.350Z,37.6647
2023-03-29T16:01:20.574Z,37.5783
2023-03-29T16:02:21.854Z,37.6804
2023-03-29T16:03:23.089Z,37.7217
2023-03-29T16:04:24.291Z,37.6386
2023-03-29T16:05:25.546Z,37.8149
2023-03-29T16:06:26.786Z,37.7635
2023-03-29T16:07:27.980Z,37.6600
2023-03-29T16:08:29.232Z,37.8021
2023-03-29T16:09:30.554Z,37.7111
2023-03-29T16:10:31.798Z,37.7097
2023-03-29T16:11:33.332Z,37.7246
2023-03-29T16:12:34.830Z,37.7006
2023-03-29T16:13:36.509Z,37.7808
2023-03-29T16:14:37.928Z,37.7164
2023-03-29T16:15:39.421Z,37.8820
2023-03-29T16:16:40.969Z,37.9843
2023-03-29T16:17:42.511Z,38.2220
2023-03-29T16:18:43.943Z,38.0119
2023-03-29T16:19:45.542Z,38.0865
2023-03-29T16:20:46.991Z,37.7043
2023-03-29T16:21:48.558Z,38.2093
2023-03-29T16:22:50.031Z,38.1924
2023-03-29T16:23:51.580Z,38.0978
2023-03-29T16:24:53.141Z,38.5122
2023-03-29T16:25:54.633Z,38.4534
2023-03-29T16:26:56.486Z,38.6124
2023-03-29T16:27:57.671Z,38.4443
2023-03-29T16:28:59.165Z,38.5740
2023-03-29T16:30:00.736Z,38.6925
2023-03-29T16:31:02.212Z,38.5344
2023-03-29T16:32:06.265Z,38.6049
2023-03-29T17:45:53.497Z,60.5851
2023-03-29T17:46:54.801Z,60.5413
2023-03-29T17:47:56.045Z,60.4057
2023-03-29T17:48:57.204Z,59.3074
2023-03-29T17:52:32.756Z,56.6397
2023-03-29T17:53:34.018Z,56.9338
2023-03-29T17:54:35.231Z,56.5504
2023-03-29T17:55:36.481Z,56.9031
2023-03-29T17:56:37.710Z,56.5167
2023-03-29T17:57:39.424Z,56.5067
2023-03-29T17:58:40.168Z,55.5171
2023-03-29T17:59:41.473Z,55.2811
2023-03-29T18:00:46.195Z,54.9434
2023-03-29T18:01:48.646Z,54.4032
2023-03-29T18:02:44.656Z,53.9871
2023-03-29T18:03:46.132Z,53.8401
2023-03-29T18:04:47.612Z,53.7386
2023-03-29T18:05:49.126Z,53.4979
2023-03-29T18:06:50.654Z,53.5783
2023-03-29T18:07:52.199Z,53.6175
2023-03-29T18:08:53.714Z,53.3682
2023-03-29T18:09:55.236Z,53.4647
2023-03-29T18:10:56.752Z,53.2415
2023-03-29T18:11:58.283Z,53.9344
2023-03-29T18:12:59.953Z,54.7063
2023-03-29T18:14:01.327Z,55.1632
2023-03-29T18:15:02.858Z,55.3195
2023-03-29T18:16:04.560Z,55.3130
2023-03-29T18:17:05.900Z,54.7851
2023-03-29T18:18:08.740Z,57.5225
2023-03-29T18:19:08.917Z,55.8332
2023-03-29T18:20:10.453Z,55.4034
2023-03-29T18:21:11.948Z,55.4053
2023-03-29T18:22:13.463Z,55.0297
2023-03-29T18:23:14.998Z,54.7989
2023-03-29T18:24:16.518Z,54.9611
2023-03-29T18:25:18.033Z,54.8082
2023-03-29T18:26:19.562Z,54.3920
2023-03-29T18:27:21.115Z,54.0395
2023-03-29T18:28:22.653Z,53.8992
2023-03-29T18:29:24.142Z,53.6319
2023-03-29T18:30:25.647Z,53.6134
2023-03-29T18:31:27.278Z,53.5244
2023-03-29T18:32:28.716Z,52.9352
2023-03-29T18:33:30.234Z,52.5961
2023-03-29T18:34:31.733Z,52.7837
2023-03-29T18:35:33.325Z,52.7973
2023-03-29T18:36:34.780Z,53.3545
2023-03-29T18:37:36.328Z,53.4094
2023-03-29T18:38:41.443Z,53.3188
2023-03-29T18:39:48.951Z,53.4602
2023-03-29T18:40:44.203Z,53.9331
2023-03-29T18:43:17.959Z,53.5012
2023-03-29T18:44:18.607Z,53.0122
2023-03-29T18:45:20.171Z,52.6813
2023-03-29T18:46:22.603Z,52.5260
2023-03-29T18:47:23.407Z,52.6596
2023-03-29T18:48:24.686Z,52.8494
2023-03-29T18:49:26.202Z,52.8888
2023-03-29T18:50:29.449Z,52.5454
2023-03-29T18:51:29.222Z,52.3529
2023-03-29T18:52:32.364Z,52.2124
2023-03-29T18:53:37.034Z,52.2898
2023-03-29T18:54:38.549Z,52.6462
2023-03-29T18:55:40.126Z,52.2327
2023-03-29T18:56:42.028Z,52.2659
2023-03-29T18:57:43.099Z,52.0908
2023-03-29T18:58:44.628Z,52.3125
2023-03-29T18:59:46.134Z,52.3706
2023-03-29T19:00:47.632Z,52.3419
2023-03-29T19:01:53.266Z,53.3906
2023-03-29T19:02:53.867Z,52.8279
2023-03-29T19:03:55.774Z,53.1185
2023-03-29T19:04:56.281Z,52.6255
2023-03-29T19:05:57.503Z,53.4587
2023-03-29T19:06:58.741Z,53.8215
2023-03-29T19:07:59.988Z,53.6728
2023-03-29T19:09:01.242Z,53.2244
2023-03-29T19:10:02.486Z,53.5311
2023-03-29T19:11:03.756Z,53.9632
2023-03-29T19:12:04.969Z,54.0433
2023-03-29T19:13:06.241Z,53.7791
2023-03-29T19:14:07.515Z,53.0186
2023-03-29T19:15:08.940Z,52.9357
2023-03-29T19:16:10.536Z,52.9272
2023-03-29T19:17:11.984Z,53.4701
2023-03-29T19:18:13.630Z,53.9389
2023-03-29T19:19:14.999Z,53.9266
2023-03-29T19:20:16.555Z,53.8695
2023-03-29T19:21:18.045Z,53.5001
2023-03-29T19:22:19.590Z,53.0352
2023-03-29T19:23:21.092Z,52.9843
2023-03-29T19:24:22.642Z,52.6941
2023-03-29T19:25:24.130Z,52.7963
2023-03-29T19:26:25.653Z,52.4077
2023-03-29T19:27:27.196Z,52.6700
2023-03-29T19:28:28.716Z,53.2730
2023-03-29T19:29:30.271Z,53.5310
2023-03-29T19:30:31.735Z,53.8695
2023-03-29T19:31:33.324Z,53.7552
2023-03-29T19:32:34.803Z,53.5445
2023-03-29T19:33:36.318Z,53.0992
2023-03-29T19:34:37.828Z,52.4562
2023-03-29T19:35:39.349Z,52.5709
2023-03-29T19:36:40.858Z,52.6787
2023-03-29T19:37:42.376Z,52.3171
2023-03-29T19:38:44.010Z,52.7058
2023-03-29T19:39:45.448Z,52.5189
2023-03-29T19:40:46.958Z,52.4512
2023-03-29T19:41:48.454Z,52.7025
2023-03-29T19:42:50.036Z,52.6955
2023-03-29T19:43:51.563Z,52.8609
2023-03-29T19:44:53.062Z,52.8984
2023-03-29T19:45:54.748Z,52.7683
2023-03-29T19:46:56.150Z,52.8368
2023-03-29T19:47:57.648Z,52.9208
2023-03-29T19:48:59.127Z,52.8270
2023-03-29T19:50:00.664Z,52.8718
2023-03-29T19:51:02.177Z,52.5089
2023-03-29T19:52:03.729Z,52.7588
2023-03-29T19:53:05.218Z,52.5631
2023-03-29T19:54:06.795Z,53.6096
2023-03-29T19:55:08.318Z,52.9284
2023-03-29T19:56:09.809Z,53.4369
2023-03-29T19:57:11.326Z,53.4660
2023-03-29T19:58:12.906Z,53.6071
2023-03-29T19:59:14.360Z,53.8894
2023-03-29T20:00:15.907Z,53.6857
2023-03-29T20:01:17.406Z,53.7034
2023-03-29T20:02:18.937Z,53.7436
2023-03-29T20:03:20.471Z,53.5675
2023-03-29T20:04:22.033Z,53.3279
2023-03-29T20:05:23.509Z,52.9090
2023-03-29T20:06:25.039Z,52.6145
2023-03-29T20:07:26.545Z,52.7293
2023-03-29T20:08:28.075Z,52.7646
2023-03-29T20:09:29.632Z,52.5119
2023-03-29T20:10:31.136Z,52.5295
2023-03-29T20:11:32.637Z,53.0755
2023-03-29T20:12:34.191Z,52.8418
2023-03-29T20:13:38.718Z,52.4056
2023-03-29T20:14:37.217Z,52.4556
2023-03-29T20:15:38.736Z,52.7500
2023-03-29T20:16:40.316Z,52.6689
2023-03-29T20:17:41.801Z,53.4063
2023-03-29T20:18:43.303Z,52.9797
2023-03-29T20:19:44.860Z,53.2080
2023-03-29T20:20:46.362Z,53.0871
2023-03-29T20:21:47.970Z,53.1575
2023-03-29T20:22:53.696Z,53.4265
2023-03-29T20:23:51.104Z,53.2937
2023-03-29T20:24:52.456Z,53.4745
2023-03-29T20:25:54.012Z,53.4624
2023-03-29T20:26:55.495Z,52.9081
2023-03-29T20:27:57.007Z,53.2791
2023-03-29T20:28:58.529Z,52.9791
2023-03-29T20:30:00.061Z,53.0220
2023-03-29T20:31:01.936Z,52.9765
2023-03-29T20:32:03.151Z,52.7760
2023-03-29T20:33:04.712Z,53.0466
2023-03-29T20:34:06.154Z,52.9094
2023-03-29T20:35:07.691Z,53.1472
2023-03-29T20:36:09.349Z,53.2229
2023-03-29T20:37:10.898Z,53.4177
2023-03-29T20:38:12.269Z,53.3911
2023-03-29T20:39:13.908Z,53.7264
2023-03-29T20:40:15.304Z,53.8300
2023-03-29T20:41:16.822Z,53.7942
2023-03-29T20:42:18.804Z,53.5609
2023-03-29T20:43:19.905Z,53.2441
2023-03-29T20:44:21.859Z,53.3122
2023-03-29T20:45:22.917Z,53.1955
2023-03-29T20:46:24.552Z,53.7858
2023-03-29T20:47:25.973Z,53.6633
2023-03-29T20:48:27.491Z,53.7054
2023-03-29T20:49:29.164Z,53.7766
2023-03-29T20:50:30.588Z,53.6940
2023-03-29T20:51:32.185Z,53.8007
2023-03-29T20:52:33.597Z,53.6056
2023-03-29T20:53:35.121Z,53.7416
2023-03-29T20:54:36.715Z,53.7112
2023-03-29T20:55:38.171Z,53.7261
2023-03-29T20:56:40.715Z,53.6221
2023-03-29T20:57:41.203Z,53.6431
2023-03-29T20:58:42.694Z,54.0615
2023-03-29T20:59:44.253Z,54.0614
2023-03-29T21:00:45.761Z,54.0517
2023-03-29T21:01:47.306Z,53.7634
2023-03-29T21:02:48.867Z,53.3943
2023-03-29T21:03:50.387Z,53.0159
2023-03-29T21:04:51.963Z,53.3910
2023-03-29T21:05:53.449Z,53.3898
2023-03-29T21:06:54.914Z,53.2527
2023-03-29T21:07:56.425Z,53.1805
2023-03-29T21:08:57.942Z,53.2764
2023-03-29T21:09:59.465Z,53.5340
2023-03-29T21:11:01.140Z,53.8781
2023-03-29T21:12:02.599Z,54.1068
2023-03-29T21:13:04.041Z,53.7877
2023-03-29T21:14:05.576Z,53.3938
2023-03-29T21:15:07.084Z,53.4640
2023-03-29T21:16:08.662Z,53.1279
2023-03-29T21:17:10.186Z,52.8814
2023-03-29T21:18:11.726Z,52.3997
2023-03-29T21:19:13.169Z,52.2327
2023-03-29T21:20:14.721Z,52.3659
2023-03-29T21:21:16.252Z,52.5793
2023-03-29T21:22:22.608Z,52.4431
2023-03-29T21:23:26.055Z,52.2570
2023-03-29T21:24:29.520Z,52.3964
2023-03-29T21:25:29.615Z,52.3098
2023-03-29T21:26:30.525Z,52.0707
2023-03-29T21:27:31.555Z,52.0444
2023-03-29T21:28:33.153Z,51.9814
2023-03-29T21:29:35.434Z,52.4873
2023-03-29T21:30:36.752Z,53.8416
2023-03-29T21:31:37.276Z,53.4857
2023-03-29T21:32:37.783Z,52.7202
2023-03-29T21:33:40.801Z,52.6625
2023-03-29T21:34:41.452Z,52.7767
2023-03-29T21:35:42.447Z,52.7446
2023-03-29T21:36:43.835Z,52.8610
2023-03-29T21:37:45.334Z,52.7965
2023-03-29T21:38:46.943Z,52.6812
2023-03-29T21:39:49.518Z,53.1837
2023-03-29T21:40:50.022Z,53.6426
2023-03-29T21:41:51.422Z,53.6505
2023-03-29T21:42:52.945Z,53.4006
2023-03-29T21:43:54.475Z,53.2188
2023-03-29T21:44:56.012Z,53.0331
2023-03-29T21:45:57.613Z,52.7111
2023-03-29T21:46:59.133Z,53.0452
2023-03-29T21:48:00.647Z,53.3962
2023-03-29T21:49:02.162Z,53.3144
2023-03-29T21:50:03.652Z,53.0794
2023-03-29T21:51:05.446Z,53.2391
2023-03-29T21:52:06.683Z,53.7229
2023-03-29T21:53:08.693Z,53.2971
2023-03-29T21:54:10.267Z,53.0820
2023-03-29T22:06:32.735Z,53.3662
2023-03-29T22:07:24.827Z,52.2165
2023-03-29T22:08:26.439Z,52.3146
2023-03-29T22:09:27.887Z,52.5851
2023-03-29T22:10:29.432Z,52.7835
2023-03-29T22:11:31.866Z,52.7196
2023-03-29T22:12:32.473Z,52.7332
2023-03-29T22:13:33.981Z,52.3928
2023-03-29T22:14:36.243Z,52.3776
2023-03-29T22:15:37.009Z,52.6644
2023-03-29T22:16:40.956Z,52.5684
2023-03-29T22:17:41.513Z,52.4105
2023-03-29T22:18:42.765Z,52.7301
2023-03-29T22:19:43.946Z,52.9152
2023-03-29T22:20:45.197Z,52.6612
2023-03-29T22:21:46.423Z,52.7399
2023-03-29T22:22:47.808Z,52.4739
2023-03-29T22:23:49.187Z,53.0858
2023-03-29T22:24:51.888Z,53.2779
2023-03-29T22:25:52.237Z,53.3508
2023-03-29T22:26:53.742Z,53.3805
2023-03-29T22:27:55.312Z,52.7043
2023-03-29T22:28:57.378Z,53.0436
2023-03-29T22:29:58.348Z,53.3743
2023-03-29T22:31:00.288Z,53.1476
2023-03-29T22:32:01.474Z,53.4419
2023-03-29T22:33:02.984Z,53.5310
2023-03-29T22:34:04.503Z,52.8216
2023-03-29T22:35:05.942Z,53.3265
2023-03-29T22:36:07.457Z,53.3185
2023-03-29T22:37:08.978Z,52.7045
2023-03-29T22:38:10.503Z,53.0631
2023-03-29T22:39:12.038Z,52.9844
2023-03-29T22:40:13.558Z,52.9608
2023-03-29T22:41:15.071Z,52.5501
2023-03-29T22:42:16.609Z,52.7443
2023-03-29T22:43:18.140Z,53.0334
2023-03-29T22:44:19.640Z,53.1725
2023-03-29T22:45:21.206Z,53.0868
2023-03-29T22:46:22.777Z,52.4988
2023-03-29T22:47:24.240Z,52.7018
2023-03-29T22:48:25.709Z,52.8548
2023-03-29T22:49:27.257Z,52.9459
2023-03-29T22:50:28.769Z,52.4735
2023-03-29T22:51:30.301Z,53.0307
2023-03-29T22:52:31.852Z,52.8929
2023-03-29T22:53:33.376Z,52.9154
2023-03-29T22:54:34.864Z,52.5779
2023-03-29T22:55:36.375Z,52.7955
2023-03-29T22:56:37.997Z,53.1172
2023-03-29T22:57:39.472Z,53.3688
2023-03-29T22:58:40.988Z,53.7476
2023-03-29T22:59:42.493Z,53.2472
2023-03-29T23:00:44.019Z,53.1175
2023-03-29T23:01:45.514Z,52.7257
2023-03-29T23:02:47.031Z,52.9909
2023-03-29T23:03:48.595Z,52.9172
2023-03-29T23:04:50.222Z,52.9758
2023-03-29T23:05:51.587Z,52.8218
2023-03-29T23:06:53.193Z,52.5011
2023-03-29T23:07:54.624Z,52.9561
2023-03-29T23:08:56.170Z,52.8161
2023-03-29T23:09:57.723Z,52.9704
2023-03-29T23:10:59.188Z,52.9835
2023-03-29T23:12:00.854Z,52.5944
2023-03-29T23:13:02.224Z,53.0617
2023-03-29T23:14:03.744Z,53.3286
2023-03-29T23:15:05.304Z,53.1564
2023-03-29T23:16:06.889Z,52.6113
2023-03-29T23:17:08.307Z,52.4341
2023-03-29T23:18:09.852Z,52.4949
2023-03-29T23:19:11.347Z,52.4704
2023-03-29T23:20:12.938Z,52.7076
2023-03-29T23:21:14.397Z,52.5593
2023-03-29T23:22:15.951Z,52.2989
2023-03-29T23:23:17.438Z,52.2087
2023-03-29T23:24:19.323Z,52.3301
2023-03-29T23:25:20.490Z,52.5203
2023-03-29T23:26:22.003Z,52.5404
2023-03-29T23:27:23.576Z,52.2421
2023-03-29T23:28:25.069Z,52.6455
2023-03-29T23:29:26.567Z,52.1589
2023-03-29T23:30:28.108Z,52.7132
2023-03-29T23:31:29.657Z,52.2732
2023-03-29T23:32:31.165Z,52.7959
2023-03-29T23:33:32.689Z,52.6415
2023-03-29T23:34:34.185Z,52.3226
2023-03-29T23:35:35.773Z,52.5058
2023-03-29T23:36:37.233Z,52.7705
2023-03-29T23:37:38.799Z,52.7699
2023-03-29T23:38:40.262Z,52.8328
2023-03-29T23:39:41.826Z,53.0480
2023-03-29T23:40:43.316Z,52.7934
2023-03-29T23:41:44.915Z,52.8188
2023-03-29T23:42:46.384Z,52.9697
2023-03-29T23:43:47.913Z,52.8731
2023-03-29T23:44:49.402Z,53.0603
2023-03-29T23:45:51.083Z,52.9196
2023-03-29T23:46:52.541Z,52.5659
2023-03-29T23:47:54.025Z,52.8690
2023-03-29T23:48:55.554Z,53.0006
2023-03-29T23:49:57.016Z,52.8975
2023-03-29T23:50:59.616Z,52.9300
2023-03-29T23:52:00.077Z,52.8081
2023-03-29T23:53:01.560Z,52.8553
2023-03-29T23:54:03.120Z,52.8634
2023-03-29T23:55:04.595Z,52.8306
2023-03-29T23:56:06.139Z,52.7773
2023-03-29T23:57:07.757Z,52.9763
2023-03-29T23:58:09.156Z,52.9798
2023-03-29T23:59:10.741Z,52.9784
